Terminal Aerodrome Forecast
Issued by NWS

Home | Current Version | Previous Version | Text Only | Print | Product List | Glossary On
Versions: 1 2 3 4 5 6 7 8 9 10 11 12
531
FTUS45 KABQ 240538
TAFFMN
TAF
KFMN 240538Z 2406/2506 35008KT P6SM SKC
     FM240800 07005KT P6SM SKC
     FM241800 28015G25KT P6SM SKC
     FM250200 28011KT P6SM FEW130=

USA.gov is the U.S. government's official web portal to all federal, state and local government web resources and services.